createdAt,value
2023-03-16T06:41:26.399Z,5.40
2023-03-16T06:44:13.320Z,5.07
2023-03-16T06:46:59.114Z,5.15
2023-03-16T06:49:44.272Z,4.72
2023-03-16T06:52:29.726Z,4.50
2023-03-16T06:55:15.634Z,6.62
2023-03-16T06:58:01.557Z,6.37
2023-03-16T07:00:47.088Z,5.07
2023-03-16T07:03:33.472Z,4.82
2023-03-16T07:06:39.064Z,5.07
2023-03-16T07:09:25.853Z,5.07
2023-03-16T07:12:12.310Z,5.05
2023-03-16T07:14:58.296Z,5.18
2023-03-16T07:17:43.874Z,5.45
2023-03-16T07:20:32.858Z,5.78
2023-03-16T07:23:21.073Z,5.57
2023-03-16T07:26:08.403Z,5.30
2023-03-16T07:28:54.008Z,5.10
2023-03-16T07:31:40.362Z,4.87
2023-03-16T07:34:25.858Z,5.40
2023-03-16T07:37:11.743Z,5.53
2023-03-16T07:39:56.880Z,5.07
2023-03-16T07:42:44.301Z,5.32
2023-03-16T07:45:29.984Z,5.12
2023-03-16T07:48:16.198Z,5.30
2023-03-16T07:51:01.844Z,5.43
2023-03-16T07:53:47.409Z,4.82
2023-03-16T07:56:47.478Z,5.60
2023-03-16T07:59:33.309Z,5.50
2023-03-16T08:02:20.068Z,5.18
2023-03-16T08:05:05.773Z,5.28
2023-03-16T08:07:51.665Z,4.97
2023-03-16T08:10:37.388Z,5.03
2023-03-16T08:13:22.636Z,5.00
2023-03-16T08:16:10.596Z,4.68
2023-03-16T08:18:57.150Z,4.95
2023-03-16T08:21:59.756Z,4.93
2023-03-16T08:24:46.222Z,4.80
2023-03-16T08:27:31.324Z,4.72
2023-03-16T08:30:17.714Z,4.97
2023-03-16T08:33:03.628Z,4.72
2023-03-16T08:35:48.810Z,4.90
2023-03-16T08:38:35.376Z,4.82
2023-03-16T08:41:21.581Z,5.15
2023-03-16T08:44:07.950Z,4.90
2023-03-16T08:46:53.417Z,6.05
2023-03-16T08:49:38.606Z,5.07
2023-03-16T08:52:26.266Z,5.40
2023-03-16T08:55:13.637Z,5.18
2023-03-16T08:58:00.718Z,5.30
2023-03-16T09:00:47.447Z,4.78
2023-03-16T09:03:37.826Z,4.45
2023-03-16T09:06:23.510Z,4.93
2023-03-16T09:09:09.795Z,5.75
2023-03-16T09:11:55.434Z,4.75
2023-03-16T09:14:40.889Z,4.32
2023-03-16T09:17:27.211Z,4.53
2023-03-16T09:20:34.574Z,4.53
2023-03-16T09:23:21.150Z,4.32
2023-03-16T09:26:07.682Z,4.37
2023-03-16T09:28:54.637Z,4.10
2023-03-16T09:31:43.275Z,4.22
2023-03-16T09:34:30.520Z,4.43
2023-03-16T09:37:16.748Z,3.35
2023-03-16T09:40:06.810Z,3.72
2023-03-16T09:43:11.264Z,5.20
2023-03-16T09:46:06.510Z,4.30
2023-03-16T09:48:52.291Z,4.65
2023-03-16T09:51:39.404Z,4.40
2023-03-16T09:55:17.638Z,4.15
2023-03-16T09:58:07.002Z,3.65
2023-03-16T10:01:10.905Z,4.00
2023-03-16T10:04:02.548Z,3.47
2023-03-16T10:06:58.475Z,3.72
2023-03-16T10:09:51.233Z,3.70
2023-03-16T10:12:43.735Z,5.82
2023-03-16T10:15:32.846Z,3.87
2023-03-16T10:18:26.524Z,3.83
2023-03-16T10:21:14.511Z,3.10
2023-03-16T10:24:02.442Z,3.33
2023-03-16T10:26:54.624Z,2.87
2023-03-16T10:29:39.854Z,3.58
2023-03-16T10:32:29.462Z,3.30
2023-03-16T10:35:54.243Z,3.28
2023-03-16T10:38:40.107Z,3.58
2023-03-16T10:41:31.306Z,2.90
2023-03-16T10:44:23.750Z,3.35
2023-03-16T10:47:18.354Z,3.42
2023-03-16T10:50:16.895Z,3.17
2023-03-16T10:53:03.443Z,3.00
2023-03-16T10:55:50.434Z,3.15
2023-03-16T10:58:46.700Z,2.70
2023-03-16T11:01:32.297Z,2.83
2023-03-16T11:04:19.298Z,3.00
2023-03-16T11:07:09.805Z,3.45
2023-03-16T11:09:55.719Z,3.20
2023-03-16T11:12:41.636Z,3.62
2023-03-16T11:15:28.598Z,2.90
2023-03-16T11:18:25.108Z,3.30
2023-03-16T11:21:18.362Z,2.90
2023-03-16T11:24:05.006Z,2.80
2023-03-16T11:26:55.782Z,3.50
2023-03-16T11:29:47.426Z,3.20
2023-03-16T11:32:38.118Z,3.53
2023-03-16T11:35:52.747Z,3.40
2023-03-16T11:38:56.918Z,3.53
2023-03-16T11:41:52.223Z,2.87
2023-03-16T11:44:57.882Z,3.30
2023-03-16T11:48:04.796Z,2.80
2023-03-16T11:51:10.486Z,3.12
2023-03-16T11:54:35.844Z,2.53
2023-03-16T11:57:37.847Z,2.78
2023-03-16T12:00:40.632Z,2.70
2023-03-16T12:03:31.931Z,2.50
2023-03-16T12:06:39.107Z,2.55
2023-03-16T12:09:43.253Z,2.42
2023-03-16T12:12:54.715Z,2.95
2023-03-16T12:15:48.741Z,3.00
2023-03-16T12:19:04.621Z,2.70
2023-03-16T12:22:01.279Z,2.50
2023-03-16T12:24:48.351Z,2.65
2023-03-16T12:27:36.675Z,2.42
2023-03-16T12:30:26.261Z,2.45
2023-03-16T12:33:55.353Z,3.10
2023-03-16T12:37:02.902Z,3.17
2023-03-16T12:39:53.890Z,2.70
2023-03-16T12:42:48.248Z,2.37
2023-03-16T12:45:54.947Z,2.78
2023-03-16T12:48:44.798Z,2.25
2023-03-16T12:51:38.809Z,3.10
2023-03-16T12:54:25.880Z,2.55
2023-03-16T12:57:17.010Z,2.80
2023-03-16T13:00:04.899Z,2.75
2023-03-16T13:02:53.625Z,2.95
2023-03-16T13:05:45.848Z,2.40
2023-03-16T13:08:48.387Z,2.70
2023-03-16T13:11:50.188Z,2.58
2023-03-16T13:14:44.246Z,2.00
2023-03-16T13:17:32.179Z,2.37
2023-03-16T13:20:31.176Z,2.90
2023-03-16T13:23:26.304Z,2.60
2023-03-16T13:26:46.301Z,3.22
2023-03-16T13:29:32.744Z,2.58
2023-03-16T13:32:19.743Z,2.25
2023-03-16T13:35:05.515Z,2.20
2023-03-16T13:37:51.180Z,2.40
2023-03-16T13:40:46.380Z,2.92
2023-03-16T13:43:34.985Z,2.67
2023-03-16T13:46:22.524Z,2.67
2023-03-16T13:49:07.571Z,2.55
2023-03-16T13:51:55.741Z,2.30
2023-03-16T13:54:41.975Z,2.20
2023-03-16T13:57:30.556Z,2.47
2023-03-16T14:00:21.741Z,2.15
2023-03-16T14:03:18.964Z,2.08
2023-03-16T14:06:07.544Z,2.65
2023-03-16T14:08:58.881Z,3.00
2023-03-16T14:11:48.455Z,2.47
2023-03-16T14:14:41.722Z,2.45
2023-03-16T14:17:28.384Z,2.92
2023-03-16T14:20:25.534Z,2.00
2023-03-16T14:23:21.857Z,2.62
2023-03-16T14:26:18.910Z,2.17
2023-03-16T14:29:17.248Z,2.30
2023-03-16T14:32:02.573Z,2.60
2023-03-16T14:34:51.550Z,2.70
2023-03-16T14:37:38.623Z,2.50
2023-03-16T14:40:30.831Z,2.60
2023-03-16T14:43:16.148Z,2.80
2023-03-16T14:46:04.042Z,2.70
2023-03-16T14:48:50.620Z,2.90
2023-03-16T14:51:38.131Z,2.75
2023-03-16T14:54:28.246Z,2.37
2023-03-16T14:57:16.724Z,3.55
2023-03-16T15:00:02.306Z,2.53
2023-03-16T15:03:08.713Z,2.12
2023-03-16T15:05:54.705Z,2.20
2023-03-16T15:08:44.522Z,2.20
2023-03-16T15:11:31.752Z,2.10
2023-03-16T15:14:37.140Z,2.70
2023-03-16T15:17:22.135Z,2.50
2023-03-16T15:20:08.300Z,2.60
2023-03-16T15:22:53.642Z,2.70
2023-03-16T15:25:41.365Z,2.80
2023-03-16T15:28:27.781Z,2.70
2023-03-16T15:31:17.133Z,2.17
2023-03-16T15:34:02.687Z,2.85
2023-03-16T15:36:48.193Z,2.90
2023-03-16T15:39:33.439Z,2.60
2023-03-16T15:42:19.442Z,2.60
2023-03-16T15:45:07.701Z,3.10
2023-03-16T15:47:56.028Z,2.35
2023-03-16T15:50:44.739Z,2.10
2023-03-16T15:53:39.417Z,2.70
2023-03-16T15:56:30.020Z,2.53
2023-03-16T15:59:17.257Z,2.95
2023-03-16T16:02:03.184Z,3.62
2023-03-16T16:04:48.706Z,3.90
2023-03-16T16:07:33.984Z,3.35
2023-03-16T16:10:19.376Z,3.10
2023-03-16T16:13:04.313Z,2.85
2023-03-16T16:15:49.626Z,3.15
2023-03-16T16:18:38.763Z,2.92
2023-03-16T16:21:28.119Z,3.20
2023-03-16T16:24:16.561Z,3.70
2023-03-16T16:27:01.837Z,3.30
2023-03-16T16:29:47.282Z,3.72
2023-03-16T16:32:32.189Z,4.03
2023-03-16T16:35:24.689Z,4.65
2023-03-16T16:38:10.399Z,4.57
2023-03-16T16:40:58.619Z,9.25
2023-03-16T16:43:47.141Z,4.00
2023-03-16T16:46:40.316Z,3.58
2023-03-16T16:49:28.432Z,3.60
2023-03-16T16:52:17.471Z,4.22
2023-03-16T16:55:02.607Z,3.28
2023-03-16T16:57:49.427Z,3.85
2023-03-16T17:00:38.082Z,4.70
2023-03-16T17:03:28.381Z,4.30
2023-03-16T17:06:18.862Z,4.85
2023-03-16T17:09:05.542Z,4.80
2023-03-16T17:11:51.500Z,4.85
2023-03-16T17:14:36.999Z,4.62
2023-03-16T17:17:22.434Z,5.20
2023-03-16T17:20:25.966Z,4.90
2023-03-16T17:23:26.502Z,4.90
2023-03-16T17:26:16.287Z,4.50
2023-03-16T17:29:06.418Z,4.87
2023-03-16T17:31:52.271Z,4.65
2023-03-16T17:34:37.625Z,3.33
2023-03-16T17:37:23.329Z,3.53
2023-03-16T17:40:20.164Z,3.70
2023-03-16T17:43:06.313Z,5.30
2023-03-16T17:45:55.832Z,5.15
2023-03-16T17:48:40.974Z,5.47
2023-03-16T17:51:26.727Z,4.90
2023-03-16T17:54:12.406Z,4.90
2023-03-16T17:56:57.767Z,6.25
2023-03-16T17:59:45.399Z,4.72
2023-03-16T18:02:50.588Z,4.03
2023-03-16T18:05:36.847Z,3.45
2023-03-16T18:08:27.670Z,3.87
2023-03-16T18:11:17.869Z,4.10
2023-03-16T18:14:04.928Z,3.72
2023-03-16T18:16:50.069Z,4.03
2023-03-16T18:19:35.597Z,3.30
2023-03-16T18:22:24.674Z,4.40
2023-03-16T18:25:27.555Z,4.97
2023-03-16T18:28:13.964Z,4.40
2023-03-16T18:31:00.132Z,4.65
2023-03-16T18:33:46.820Z,5.82
2023-03-16T18:36:34.303Z,5.10
2023-03-16T18:39:20.581Z,5.03
2023-03-16T18:42:06.759Z,4.68
2023-03-16T18:44:52.011Z,4.87
2023-03-16T18:47:39.696Z,4.75
2023-03-16T18:50:30.259Z,5.55
2023-03-16T18:53:16.668Z,4.37
2023-03-16T18:56:02.085Z,4.55
2023-03-16T18:58:52.763Z,4.40
2023-03-16T19:01:39.575Z,7.80
2023-03-16T19:04:27.575Z,8.52
2023-03-16T19:07:24.680Z,8.77
2023-03-16T19:10:35.577Z,5.47
2023-03-16T19:13:22.467Z,6.15
2023-03-16T19:16:16.655Z,4.22
2023-03-16T19:19:01.935Z,3.97
2023-03-16T19:21:48.902Z,3.62
2023-03-16T19:24:36.418Z,3.70
2023-03-16T19:27:26.901Z,4.20
2023-03-16T19:30:20.770Z,3.20
2023-03-16T19:35:58.094Z,4.40
2023-03-16T19:38:47.113Z,4.55
2023-03-16T19:41:34.579Z,4.70
2023-03-16T19:44:22.486Z,4.30
2023-03-16T19:47:22.000Z,5.12
2023-03-16T19:50:17.276Z,6.43
2023-03-16T19:53:02.357Z,4.50
2023-03-16T19:55:49.096Z,4.95
2023-03-16T19:58:38.513Z,4.72
2023-03-16T20:01:32.224Z,4.07
2023-03-16T20:07:07.395Z,4.15
2023-03-16T20:09:53.053Z,4.82
2023-03-16T20:12:40.359Z,4.32
2023-03-16T20:15:29.266Z,4.78
2023-03-16T20:18:17.276Z,4.82
2023-03-16T20:21:02.598Z,5.50
2023-03-16T20:23:48.537Z,4.90
2023-03-16T20:26:33.952Z,4.20
2023-03-16T20:29:28.698Z,4.07
2023-03-16T20:32:22.732Z,4.03
2023-03-16T20:35:18.903Z,3.37
2023-03-16T20:38:04.262Z,4.30
2023-03-16T20:40:54.154Z,8.30
2023-03-16T20:43:39.452Z,9.80
2023-03-16T20:46:27.880Z,9.82
2023-03-16T20:49:22.219Z,10.00
2023-03-16T20:52:19.195Z,10.13
2023-03-16T20:55:05.319Z,9.10
2023-03-16T20:57:52.494Z,9.20
2023-03-16T21:00:39.146Z,9.45
2023-03-16T21:03:27.626Z,8.85
2023-03-16T21:06:39.188Z,9.95
2023-03-16T21:09:24.645Z,11.23
2023-03-16T21:12:29.410Z,11.02
2023-03-16T21:15:35.428Z,11.40
2023-03-16T21:18:21.612Z,10.35
2023-03-16T21:21:06.739Z,9.07
2023-03-16T21:23:52.272Z,9.23
2023-03-16T21:26:37.767Z,9.07
2023-03-16T21:29:23.865Z,9.88
2023-03-16T21:32:19.409Z,9.85
2023-03-16T21:35:04.864Z,8.80
2023-03-16T21:37:52.326Z,9.07
2023-03-16T21:40:37.343Z,9.90
2023-03-16T21:43:23.283Z,10.52
2023-03-16T21:46:18.531Z,7.87
2023-03-16T21:49:05.028Z,9.13
2023-03-16T21:51:51.123Z,8.45
2023-03-16T21:54:36.502Z,8.38
2023-03-16T21:57:21.761Z,8.07
2023-03-16T22:00:08.261Z,8.27
2023-03-16T22:02:55.593Z,8.63
2023-03-16T22:05:42.881Z,7.32
2023-03-16T22:08:31.174Z,8.20
2023-03-16T22:11:21.938Z,7.55
2023-03-16T22:14:09.894Z,8.35
2023-03-16T22:16:55.936Z,7.70
2023-03-16T22:19:41.014Z,8.07
2023-03-16T22:22:27.197Z,6.95
2023-03-16T22:25:17.257Z,8.70
2023-03-16T22:28:02.876Z,7.65
2023-03-16T22:30:48.523Z,10.30
2023-03-16T22:33:40.682Z,8.63
2023-03-16T22:36:27.044Z,7.80
2023-03-16T22:39:15.667Z,6.03
2023-03-16T22:42:01.206Z,8.75
2023-03-16T22:44:46.687Z,6.95
2023-03-16T22:47:36.854Z,6.55
2023-03-16T22:50:24.314Z,5.93
2023-03-16T22:53:11.663Z,4.53
2023-03-16T22:55:57.245Z,5.72
2023-03-16T22:58:45.937Z,4.78
2023-03-16T23:01:42.647Z,4.50
2023-03-16T23:04:30.406Z,6.35
2023-03-16T23:07:16.048Z,5.57
2023-03-16T23:10:01.193Z,5.87
2023-03-16T23:12:46.567Z,5.57
2023-03-16T23:15:38.362Z,5.65
2023-03-16T23:18:25.359Z,5.50
2023-03-16T23:21:19.245Z,6.30
2023-03-16T23:24:04.878Z,6.53
2023-03-16T23:26:51.201Z,6.53
2023-03-16T23:29:36.522Z,6.68
2023-03-16T23:32:21.881Z,7.12
2023-03-16T23:35:19.606Z,6.20
2023-03-16T23:38:04.903Z,5.37
2023-03-16T23:40:50.110Z,5.12
2023-03-16T23:43:36.183Z,5.72
2023-03-16T23:46:23.367Z,6.37
2023-03-16T23:49:24.207Z,7.03
2023-03-16T23:52:10.157Z,6.10
2023-03-16T23:54:56.177Z,6.37
2023-03-16T23:57:41.553Z,5.00
